Time;durP1;ratioP1;P1;durP2;ratioP2;P2;SDS_P1;SDS_P2;PMS_P1;PMS_P2;Temp;Humidity;BMP_temperature;BMP_pressure;BME280_temperature;BME280_humidity;BME280_pressure;Samples;Min_cycle;Max_cycle;Signal;HPM_P1;HPM_P2
2022/05/12 00:02:15;;;;;;;18.30;9.77;;;;;;;13.06;79.83;95315.69;5047988;28;20199;-79
2022/05/12 00:04:41;;;;;;;19.67;9.53;;;;;;;13.17;80.05;95341.47;5027857;28;20168;-79
2022/05/12 00:07:07;;;;;;;16.50;8.63;;;;;;;13.12;80.23;95333.34;5052793;28;20179;-79
2022/05/12 00:09:33;;;;;;;16.23;8.07;;;;;;;13.06;80.26;95334.19;5052518;28;20175;-79
2022/05/12 00:11:59;;;;;;;19.43;8.60;;;;;;;13.04;80.70;95333.63;5052651;28;20522;-79
2022/05/12 00:14:25;;;;;;;17.07;8.90;;;;;;;12.95;80.63;95331.44;5052607;28;20265;-79
2022/05/12 00:16:51;;;;;;;15.37;7.80;;;;;;;12.76;80.72;95307.56;5049186;28;20217;-79
2022/05/12 00:19:16;;;;;;;22.40;9.27;;;;;;;12.71;80.93;95306.59;5049584;28;20212;-79
2022/05/12 00:21:43;;;;;;;19.73;8.60;;;;;;;12.90;81.27;95334.72;5052491;28;20226;-78
2022/05/12 00:24:09;;;;;;;17.77;9.33;;;;;;;12.89;81.07;95341.03;5052317;28;20262;-79
2022/05/12 00:26:36;;;;;;;20.67;9.37;;;;;;;12.89;80.69;95329.63;5049336;28;20268;-79
2022/05/12 00:29:05;;;;;;;18.27;9.37;;;;;;;12.87;81.13;95331.72;5052303;28;20716;-79
2022/05/12 00:31:32;;;;;;;24.47;9.87;;;;;;;12.83;81.14;95334.75;5052071;28;20552;-79
2022/05/12 00:33:58;;;;;;;18.37;8.93;;;;;;;12.73;81.29;95329.13;5051943;28;20179;-79
2022/05/12 00:36:23;;;;;;;16.37;8.87;;;;;;;12.80;81.33;95331.72;5052102;28;20237;-79
2022/05/12 00:38:49;;;;;;;21.03;9.03;;;;;;;12.60;81.02;95305.44;5052025;28;20221;-79
2022/05/12 00:41:15;;;;;;;17.00;7.20;;;;;;;12.40;80.39;95273.84;5052139;28;20186;-79
2022/05/12 00:44:05;;;;;;;18.70;8.10;;;;;;;12.73;80.34;95333.59;5043966;28;20262;-80
2022/05/12 00:46:38;;;;;;;16.40;8.13;;;;;;;12.69;80.42;95335.06;5050831;28;20163;-80
2022/05/12 00:49:26;;;;;;;15.63;7.37;;;;;;;12.46;80.61;95296.75;5051894;28;20175;-80
2022/05/12 00:52:06;;;;;;;15.30;8.13;;;;;;;12.73;80.52;95333.59;5037772;28;20228;-79
2022/05/12 00:54:50;;;;;;;19.87;7.23;;;;;;;12.67;80.36;95340.53;5052214;28;20221;-80
2022/05/12 00:57:27;;;;;;;17.73;7.37;;;;;;;12.57;80.55;95331.47;5050623;28;20687;-79
2022/05/12 00:59:54;;;;;;;17.03;7.60;;;;;;;12.53;80.68;95338.19;5047709;28;20174;-79
2022/05/12 01:02:20;;;;;;;15.53;8.37;;;;;;;12.50;81.24;95341.25;5051614;28;20222;-79
2022/05/12 01:04:47;;;;;;;18.60;8.27;;;;;;;12.36;81.36;95328.13;5051599;28;20236;-79
2022/05/12 01:07:14;;;;;;;18.97;8.13;;;;;;;11.98;81.32;95277.09;5050660;28;20195;-79
2022/05/12 01:09:40;;;;;;;16.10;7.23;;;;;;;12.36;81.03;95327.31;5051106;28;20171;-79
2022/05/12 01:12:06;;;;;;;14.20;7.70;;;;;;;12.39;81.24;95343.53;5051319;28;20178;-79
2022/05/12 01:14:32;;;;;;;16.20;7.30;;;;;;;12.34;81.33;95353.09;5048282;28;20182;-79
2022/05/12 01:17:00;;;;;;;18.13;6.50;;;;;;;12.10;81.60;95315.03;5050637;28;20187;-80
2022/05/12 01:19:29;;;;;;;17.90;6.60;;;;;;;12.17;81.62;95323.72;5047729;28;20183;-79
2022/05/12 01:21:56;;;;;;;11.37;6.03;;;;;;;12.35;81.47;95346.81;5048750;28;20297;-79
2022/05/12 01:24:25;;;;;;;14.33;6.23;;;;;;;12.32;81.23;95350.66;5052365;28;20675;-79
2022/05/12 01:26:50;;;;;;;11.90;5.90;;;;;;;12.25;81.38;95338.50;5046253;28;20179;-79
2022/05/12 01:29:17;;;;;;;8.53;5.67;;;;;;;12.27;81.35;95355.78;5050293;28;20199;-79
2022/05/12 01:31:42;;;;;;;12.33;7.23;;;;;;;12.08;81.69;95333.69;5051745;28;20167;-79
2022/05/12 01:34:10;;;;;;;13.07;6.43;;;;;;;12.01;81.94;95326.81;5051524;28;20256;-79
2022/05/12 01:36:37;;;;;;;11.67;7.27;;;;;;;12.15;82.02;95349.50;5050830;28;20620;-79
2022/05/12 01:39:04;;;;;;;16.90;7.53;;;;;;;11.86;81.89;95310.41;5042736;28;20214;-79
2022/05/12 01:41:30;;;;;;;17.80;6.90;;;;;;;12.15;82.31;95353.97;5022195;28;20290;-79
2022/05/12 01:43:55;;;;;;;14.27;7.03;;;;;;;12.12;82.78;95354.38;5028964;28;20212;-80
2022/05/12 01:46:21;;;;;;;13.17;7.70;;;;;;;11.84;82.04;95301.91;5049328;28;20172;-80
2022/05/12 01:48:46;;;;;;;12.10;7.30;;;;;;;12.07;82.27;95350.56;5040629;28;20188;-81
2022/05/12 01:51:12;;;;;;;13.77;7.53;;;;;;;11.86;82.39;95328.88;5051130;28;20236;-81
2022/05/12 01:53:38;;;;;;;14.80;7.93;;;;;;;11.96;82.57;95343.25;5051122;28;20167;-81
2022/05/12 01:56:06;;;;;;;14.20;7.87;;;;;;;12.04;82.47;95358.06;5050898;28;20179;-81
2022/05/12 01:58:32;;;;;;;10.77;6.63;;;;;;;11.96;82.57;95353.00;5051064;28;20171;-80
2022/05/12 02:00:58;;;;;;;10.47;6.83;;;;;;;11.73;82.43;95322.59;5050877;28;20529;-80
2022/05/12 02:03:24;;;;;;;12.30;8.03;;;;;;;11.68;82.33;95311.03;5050799;28;20259;-81
2022/05/12 02:05:50;;;;;;;13.70;7.00;;;;;;;11.95;82.66;95361.94;5051047;28;20175;-81
2022/05/12 02:08:17;;;;;;;11.00;6.37;;;;;;;11.92;82.41;95355.25;5050831;28;20181;-81
2022/05/12 02:10:45;;;;;;;13.03;6.90;;;;;;;11.91;82.43;95366.00;5039984;28;20183;-81
2022/05/12 02:13:11;;;;;;;12.37;6.33;;;;;;;11.64;82.55;95328.28;5050857;28;20602;-81
2022/05/12 02:15:39;;;;;;;8.73;6.30;;;;;;;11.78;83.04;95360.75;5054689;28;20179;-81
2022/05/12 02:18:05;;;;;;;13.00;6.30;;;;;;;11.38;83.00;95299.31;5054687;28;20183;-81
2022/05/12 02:20:31;;;;;;;9.27;4.97;;;;;;;11.66;82.79;95337.63;5052477;28;20175;-81
2022/05/12 02:22:56;;;;;;;10.20;6.07;;;;;;;11.65;82.85;95340.47;5054663;28;20737;-81
2022/05/12 02:25:22;;;;;;;13.23;6.30;;;;;;;11.54;82.65;95323.44;5054501;28;20175;-81
2022/05/12 02:27:49;;;;;;;7.53;5.47;;;;;;;11.51;82.67;95315.09;5036607;28;20179;-81
2022/05/12 02:30:30;;;;;;;9.73;6.07;;;;;;;11.36;82.76;95307.44;5052965;28;20241;-81
2022/05/12 02:32:55;;;;;;;8.70;5.47;;;;;;;11.67;82.56;95360.34;5054144;28;20174;-80
2022/05/12 02:35:21;;;;;;;10.20;5.87;;;;;;;11.66;83.05;95355.28;5054579;28;20167;-80
2022/05/12 02:37:47;;;;;;;10.17;6.93;;;;;;;11.26;83.03;95305.19;5054188;28;20667;-81
2022/05/12 02:40:15;;;;;;;10.73;6.37;;;;;;;11.33;83.27;95327.09;5036744;28;20221;-81
2022/05/12 02:42:41;;;;;;;12.03;6.77;;;;;;;11.46;83.08;95349.19;5052609;28;20203;-81
2022/05/12 02:45:07;;;;;;;9.70;6.63;;;;;;;11.22;83.20;95317.19;5054189;28;20232;-81
2022/05/12 02:47:33;;;;;;;11.70;6.80;;;;;;;11.11;83.66;95303.78;5045596;28;20175;-81
2022/05/12 02:49:59;;;;;;;13.13;7.10;;;;;;;11.46;83.74;95365.00;5045134;28;20183;-81
2022/05/12 02:52:24;;;;;;;13.80;7.53;;;;;;;10.95;83.61;95283.94;5046761;28;20171;-82
2022/05/12 02:54:50;;;;;;;12.43;7.17;;;;;;;11.01;83.77;95301.56;5053681;28;20168;-81
2022/05/12 02:57:15;;;;;;;12.73;7.00;;;;;;;11.45;83.81;95376.56;5053744;28;20710;-81
2022/05/12 02:59:41;;;;;;;13.13;6.93;;;;;;;11.47;83.76;95371.91;5053645;28;20305;-81
2022/05/12 03:02:07;;;;;;;13.70;6.47;;;;;;;10.91;83.59;95294.06;5053779;28;20195;-81
2022/05/12 03:04:33;;;;;;;12.23;7.23;;;;;;;11.06;83.39;95319.41;5035805;28;20645;-81
2022/05/12 03:06:59;;;;;;;12.07;7.53;;;;;;;11.45;83.69;95379.22;5053419;28;20175;-81
2022/05/12 03:09:25;;;;;;;10.40;7.17;;;;;;;11.28;83.53;95353.25;5053962;28;20170;-81
2022/05/12 03:11:50;;;;;;;9.10;6.37;;;;;;;11.15;83.54;95331.38;5051711;28;20179;-81
2022/05/12 03:14:17;;;;;;;11.27;7.53;;;;;;;11.25;83.86;95358.09;5053391;28;20230;-81
2022/05/12 03:16:42;;;;;;;16.07;7.93;;;;;;;11.22;83.81;95356.72;5053480;28;20688;-81
2022/05/12 03:19:08;;;;;;;12.33;7.67;;;;;;;11.44;83.56;95399.47;5053532;28;20255;-81
2022/05/12 03:21:34;;;;;;;17.37;8.73;;;;;;;11.43;83.22;95399.69;5051687;28;20245;-81
2022/05/12 03:23:59;;;;;;;17.63;8.30;;;;;;;10.94;82.98;95327.91;5042979;28;20209;-81
2022/05/12 03:26:25;;;;;;;12.60;7.40;;;;;;;11.37;83.58;95403.94;5027398;28;20636;-80
2022/05/12 03:28:50;;;;;;;44.03;25.13;;;;;;;11.34;83.88;95406.97;5044466;28;20629;-80
2022/05/12 03:31:16;;;;;;;14.80;9.57;;;;;;;11.34;83.88;95404.34;5053054;28;20186;-81
2022/05/12 03:33:42;;;;;;;21.23;9.70;;;;;;;10.95;83.52;95349.78;5035221;28;20163;-81
2022/05/12 03:36:07;;;;;;;26.07;11.50;;;;;;;11.32;83.55;95409.84;5053060;28;20262;-81
2022/05/12 03:38:34;;;;;;;20.47;9.70;;;;;;;11.35;83.32;95417.31;5053004;28;20604;-81
2022/05/12 03:40:59;;;;;;;22.70;9.87;;;;;;;11.00;83.29;95341.28;5052784;28;20171;-81
2022/05/12 03:46:12;;;;;;;24.17;11.07;;;;;;;11.58;83.04;95419.59;5049757;28;20215;-81
2022/05/12 03:48:39;;;;;;;22.03;10.90;;;;;;;11.70;82.76;95417.94;5049965;28;21541;-81
2022/05/12 03:51:06;;;;;;;22.73;11.87;;;;;;;11.88;82.57;95427.91;5052948;28;20287;-81
2022/05/12 03:53:32;;;;;;;25.87;12.17;;;;;;;11.98;82.18;95430.13;5052705;28;20634;-81
2022/05/12 03:55:58;;;;;;;22.37;11.73;;;;;;;11.75;81.89;95372.53;5052366;28;20195;-80
2022/05/12 03:58:24;;;;;;;23.23;11.57;;;;;;;12.24;81.45;95431.91;5051146;28;20171;-81
2022/05/12 04:00:50;;;;;;;25.73;11.83;;;;;;;12.05;80.48;95373.69;5033309;28;20663;-81
2022/05/12 04:03:16;;;;;;;26.43;11.23;;;;;;;12.44;79.87;95415.00;5032405;28;20273;-81
2022/05/12 04:05:42;;;;;;;19.67;9.60;;;;;;;12.39;79.32;95390.22;5042231;28;20187;-81
2022/05/12 04:08:08;;;;;;;18.20;8.80;;;;;;;12.74;78.91;95428.50;5045977;28;20214;-80
2022/05/12 04:10:34;;;;;;;17.27;8.83;;;;;;;12.97;77.94;95441.22;5052023;28;21031;-80
2022/05/12 04:12:59;;;;;;;19.80;9.77;;;;;;;12.71;78.26;95372.66;5050350;28;20277;-81
2022/05/12 04:15:25;;;;;;;10.17;6.73;;;;;;;12.85;77.08;95372.34;5052009;28;20186;-81
2022/05/12 04:17:58;;;;;;;12.03;7.33;;;;;;;13.18;76.28;95403.09;5051805;28;20243;-81
2022/05/12 04:20:26;;;;;;;10.97;6.90;;;;;;;13.42;76.54;95404.97;5050752;28;20170;-81
2022/05/12 04:22:53;;;;;;;16.00;7.63;;;;;;;13.85;76.16;95441.25;5049542;28;20198;-81
2022/05/12 04:25:19;;;;;;;10.77;7.23;;;;;;;14.04;74.90;95434.97;5041831;28;20678;-81
2022/05/12 04:27:44;;;;;;;13.07;7.20;;;;;;;14.22;75.18;95427.06;5040584;28;20187;-81
2022/05/12 04:30:12;;;;;;;11.53;6.47;;;;;;;14.38;74.36;95412.44;5052131;28;20883;-80
2022/05/12 04:32:38;;;;;;;13.80;6.00;;;;;;;14.78;72.05;95419.97;5051549;28;20167;-81
2022/05/12 04:35:16;;;;;;;6.53;5.37;;;;;;;15.17;71.72;95424.75;5052046;28;20343;-82
2022/05/12 04:37:53;;;;;;;9.07;5.30;;;;;;;15.46;69.55;95417.81;5049177;28;20711;-81
2022/05/12 04:40:21;;;;;;;9.63;5.03;;;;;;;16.09;67.68;95452.56;5051572;28;21020;-82
2022/05/12 04:42:48;;;;;;;9.83;4.97;;;;;;;16.59;67.04;95458.25;5022243;28;21202;-81
2022/05/12 04:45:14;;;;;;;8.43;4.22;;;;;;;17.02;65.45;95457.03;5046095;28;20258;-81
2022/05/12 04:47:41;;;;;;;11.27;5.95;;;;;;;17.43;62.50;95471.09;5039297;28;20184;-81
2022/05/12 04:50:09;;;;;;;10.40;5.65;;;;;;;17.73;60.85;95445.84;5050872;28;20659;-81
2022/05/12 04:52:35;;;;;;;17.50;6.18;;;;;;;18.22;59.59;95467.44;5050465;28;20182;-81
2022/05/12 04:55:01;;;;;;;13.27;7.07;;;;;;;18.68;58.03;95484.94;5028419;28;20180;-80
2022/05/12 04:57:26;;;;;;;12.90;6.30;;;;;;;19.02;57.69;95483.00;5025903;28;20196;-80
2022/05/12 04:59:55;;;;;;;10.48;4.75;;;;;;;19.17;55.78;95453.81;5043606;28;20250;-81
2022/05/12 05:02:21;;;;;;;8.70;4.75;;;;;;;19.69;54.71;95456.00;5050261;28;20192;-81
2022/05/12 05:04:48;;;;;;;7.07;4.63;;;;;;;20.27;54.01;95483.75;5022108;28;20209;-81
2022/05/12 05:07:13;;;;;;;7.85;4.40;;;;;;;20.66;52.72;95479.81;5044048;28;20179;-81
2022/05/12 05:09:41;;;;;;;7.70;4.30;;;;;;;21.12;51.26;95480.03;5037008;28;20647;-81
2022/05/12 05:12:07;;;;;;;7.53;4.20;;;;;;;21.69;49.80;95477.31;5033005;28;20245;-82
2022/05/12 05:14:33;;;;;;;7.72;3.85;;;;;;;22.02;48.25;95475.25;5051320;28;20175;-82
2022/05/12 05:16:59;;;;;;;5.00;4.18;;;;;;;22.44;47.35;95480.34;5051471;28;20578;-81
2022/05/12 05:19:24;;;;;;;6.22;4.10;;;;;;;22.63;46.32;95445.69;5051180;28;20167;-82
2022/05/12 05:21:50;;;;;;;7.00;3.90;;;;;;;23.09;45.31;95439.13;5033283;28;20756;-82
2022/05/12 05:24:15;;;;;;;4.60;3.95;;;;;;;23.76;43.70;95453.88;5051399;28;20555;-81
2022/05/12 05:26:41;;;;;;;8.80;4.32;;;;;;;23.97;42.13;95425.75;5051179;28;20171;-82
2022/05/12 05:29:07;;;;;;;8.13;4.32;;;;;;;24.72;41.48;95438.88;5051151;28;20183;-81
2022/05/12 05:31:36;;;;;;;8.55;4.43;;;;;;;25.15;40.44;95451.34;5033040;28;20185;-82
2022/05/12 05:34:02;;;;;;;10.35;4.28;;;;;;;24.96;40.36;95436.19;5050697;28;20171;-82
2022/05/12 05:36:27;;;;;;;6.03;4.75;;;;;;;25.10;40.33;95424.44;5051086;28;20620;-82
2022/05/12 05:38:52;;;;;;;5.28;4.20;;;;;;;25.39;40.77;95426.25;5051111;28;20187;-82
2022/05/12 05:41:18;;;;;;;8.95;4.78;;;;;;;26.02;39.06;95482.59;5050863;28;20182;-82
2022/05/12 05:43:44;;;;;;;6.85;4.80;;;;;;;25.99;38.51;95429.19;5034625;28;20206;-81
2022/05/12 05:46:10;;;;;;;11.13;6.85;;;;;;;26.49;38.72;95481.59;5057633;28;20209;-82
2022/05/12 05:48:36;;;;;;;14.63;7.07;;;;;;;26.63;37.73;95475.16;5057460;28;20256;-82
2022/05/12 05:53:45;;;;;;;11.00;5.80;;;;;;;26.42;37.53;95476.56;5058095;28;20170;-82
2022/05/12 05:56:15;;;;;;;11.07;7.03;;;;;;;26.50;39.30;95480.50;5057592;28;20171;-82
2022/05/12 05:58:44;;;;;;;7.28;5.00;;;;;;;26.63;38.46;95445.44;5029649;28;20167;-82
2022/05/12 06:01:10;;;;;;;10.85;5.07;;;;;;;26.22;37.40;95444.47;5045211;28;21061;-81
2022/05/12 06:03:36;;;;;;;12.65;5.75;;;;;;;25.54;38.56;95485.34;5043120;28;20199;-81
2022/05/12 06:06:03;;;;;;;13.07;6.05;;;;;;;25.02;40.68;95473.56;5042024;28;20171;-82
2022/05/12 06:08:28;;;;;;;8.52;5.53;;;;;;;24.86;41.12;95450.56;5048221;28;20265;-82
2022/05/12 06:10:54;;;;;;;15.20;6.22;;;;;;;24.78;41.77;95451.97;5057533;28;20671;-82
2022/05/12 06:13:19;;;;;;;9.20;6.20;;;;;;;24.95;42.29;95459.66;5039252;28;20225;-82
2022/05/12 06:15:45;;;;;;;8.30;5.40;;;;;;;25.05;41.45;95486.50;5057378;28;20179;-82
2022/05/12 06:18:16;;;;;;;8.90;5.47;;;;;;;24.93;42.62;95445.66;5057432;28;20186;-82
2022/05/12 06:20:43;;;;;;;10.57;6.47;;;;;;;25.40;41.27;95479.88;5039223;28;20258;-82
2022/05/12 06:23:10;;;;;;;10.23;5.00;;;;;;;25.54;41.73;95474.56;5054435;28;20222;-81
2022/05/12 06:25:36;;;;;;;9.13;5.30;;;;;;;25.63;41.34;95475.56;5026428;28;20198;-81
2022/05/12 06:28:01;;;;;;;11.23;4.78;;;;;;;25.83;41.03;95475.28;5051431;28;20707;-82
2022/05/12 06:30:29;;;;;;;9.02;5.18;;;;;;;25.54;39.22;95451.09;5038996;28;20171;-80
2022/05/12 06:32:56;;;;;;;6.13;4.53;;;;;;;25.61;40.51;95471.53;5046206;28;20197;-80
2022/05/12 06:35:22;;;;;;;8.90;5.05;;;;;;;25.56;41.89;95475.91;5048491;28;20175;-80
2022/05/12 06:37:48;;;;;;;7.85;4.25;;;;;;;25.47;42.39;95466.03;5051410;28;20205;-80
2022/05/12 06:40:14;;;;;;;6.63;4.30;;;;;;;25.58;40.70;95467.53;5053731;28;20202;-80
2022/05/12 06:42:41;;;;;;;8.80;4.93;;;;;;;25.56;40.66;95462.41;5056707;28;20714;-80
2022/05/12 06:45:09;;;;;;;9.20;5.97;;;;;;;25.52;41.30;95479.44;5053474;28;20258;-79
2022/05/12 06:47:34;;;;;;;6.70;4.50;;;;;;;25.11;40.08;95447.59;5039114;28;20171;-80
2022/05/12 06:50:03;;;;;;;8.40;5.10;;;;;;;24.60;42.22;95446.50;5056998;28;20239;-81
2022/05/12 06:52:29;;;;;;;5.50;4.53;;;;;;;24.61;43.35;95426.56;5057356;28;20644;-80
2022/05/12 06:54:55;;;;;;;8.52;4.60;;;;;;;24.87;41.24;95440.56;5050625;28;20163;-80
2022/05/12 06:57:23;;;;;;;9.18;4.70;;;;;;;25.17;42.06;95462.63;5053450;28;20261;-81
2022/05/12 06:59:49;;;;;;;12.35;5.03;;;;;;;25.17;41.49;95413.28;5043109;28;20652;-81
2022/05/12 07:02:14;;;;;;;9.48;5.07;;;;;;;25.67;40.03;95471.19;5044376;28;20200;-80
2022/05/12 07:04:41;;;;;;;9.48;5.40;;;;;;;25.28;40.08;95465.19;5053672;28;20613;-80
2022/05/12 07:07:07;;;;;;;6.95;5.22;;;;;;;24.92;43.73;95457.50;5027466;28;20171;-80
2022/05/12 07:09:33;;;;;;;8.27;4.97;;;;;;;25.17;42.59;95459.91;5051515;28;20186;-80
2022/05/12 07:11:58;;;;;;;6.78;4.93;;;;;;;25.27;41.82;95450.09;5041699;28;20225;-80
2022/05/12 07:14:24;;;;;;;6.68;5.18;;;;;;;24.90;41.50;95462.38;5048503;28;20222;-79
2022/05/12 07:16:50;;;;;;;9.88;5.72;;;;;;;24.88;41.44;95456.47;5049874;28;20175;-80
2022/05/12 07:19:16;;;;;;;10.45;4.97;;;;;;;24.90;41.45;95461.56;5052944;28;20182;-79
2022/05/12 07:27:13;;;;;;;12.05;5.82;;;;;;;24.92;41.43;95419.78;5049260;28;20236;-79
2022/05/12 07:29:39;;;;;;;9.95;5.90;;;;;;;25.30;40.52;95455.72;5047290;28;20188;-80
2022/05/12 07:32:05;;;;;;;8.52;5.18;;;;;;;25.70;40.57;95457.13;5044844;28;20163;-79
2022/05/12 07:34:31;;;;;;;11.05;6.20;;;;;;;26.16;40.67;95453.75;5028930;28;20190;-79
2022/05/12 07:36:57;;;;;;;8.00;5.95;;;;;;;26.23;41.83;95452.28;5051346;28;20171;-80
2022/05/12 07:39:27;;;;;;;12.18;5.72;;;;;;;26.21;41.40;95448.25;5052685;28;20178;-79
2022/05/12 07:41:54;;;;;;;8.10;6.05;;;;;;;25.73;38.77;95418.78;5052921;28;20280;-79
2022/05/12 07:44:20;;;;;;;14.25;5.68;;;;;;;25.84;39.83;95428.34;5045199;28;20171;-80
2022/05/12 07:46:47;;;;;;;11.93;5.72;;;;;;;26.15;39.28;95439.44;5033701;28;20190;-80
2022/05/12 07:49:14;;;;;;;10.05;6.05;;;;;;;26.27;39.94;95436.31;5032879;28;20175;-79
2022/05/12 07:51:39;;;;;;;9.95;5.88;;;;;;;26.66;39.37;95452.91;5034579;28;20179;-79
2022/05/12 07:54:05;;;;;;;11.25;5.78;;;;;;;26.91;39.51;95423.84;5046049;28;20195;-80
2022/05/12 07:56:31;;;;;;;12.95;6.30;;;;;;;27.35;39.54;95447.56;5044061;28;20175;-80
2022/05/12 07:59:01;;;;;;;10.60;5.60;;;;;;;27.43;39.76;95449.56;5050999;28;20191;-80
2022/05/12 08:01:27;;;;;;;8.23;5.90;;;;;;;27.40;38.86;95429.34;5052236;28;20179;-80
2022/05/12 08:03:54;;;;;;;13.73;6.65;;;;;;;27.44;39.11;95413.31;5046664;28;20194;-80
2022/05/12 08:06:20;;;;;;;9.32;5.82;;;;;;;27.45;36.73;95436.53;5027715;28;20195;-81
2022/05/12 08:08:48;;;;;;;12.07;5.85;;;;;;;26.78;37.18;95374.09;5045293;28;20226;-80
2022/05/12 08:11:14;;;;;;;8.57;6.07;;;;;;;27.09;39.95;95428.34;5050521;28;20225;-81
2022/05/12 08:13:40;;;;;;;10.15;5.80;;;;;;;27.32;39.13;95440.88;5052468;28;20211;-80
2022/05/12 08:16:07;;;;;;;11.85;5.65;;;;;;;27.61;40.21;95440.56;5051898;28;20183;-80
2022/05/12 08:18:33;;;;;;;8.88;5.30;;;;;;;27.73;36.57;95415.69;5050421;28;20215;-79
2022/05/12 08:20:59;;;;;;;13.77;4.85;;;;;;;27.71;39.21;95409.75;5034051;28;20171;-80
2022/05/12 08:23:25;;;;;;;8.35;5.47;;;;;;;27.65;36.10;95429.94;5052344;28;20207;-79
2022/05/12 08:25:51;;;;;;;6.65;5.07;;;;;;;27.26;35.65;95435.88;5051719;28;20179;-80
2022/05/12 08:28:20;;;;;;;10.90;4.95;;;;;;;27.16;37.94;95427.94;5045574;28;20173;-79
2022/05/12 08:30:47;;;;;;;7.53;5.00;;;;;;;27.05;36.39;95419.25;5045462;28;20183;-79
2022/05/12 08:33:13;;;;;;;8.45;4.70;;;;;;;26.66;37.80;95396.19;5040486;28;20246;-79
2022/05/12 08:35:40;;;;;;;6.55;5.03;;;;;;;26.44;39.54;95412.28;5041745;28;20235;-78
2022/05/12 08:38:05;;;;;;;12.60;4.45;;;;;;;26.37;42.13;95401.06;5043303;28;20247;-79
2022/05/12 08:40:37;;;;;;;7.03;3.63;;;;;;;26.33;37.51;95423.53;5042361;28;20178;-79
2022/05/12 08:43:13;;;;;;;9.68;3.50;;;;;;;26.89;37.56;95421.44;5050501;28;20583;-82
2022/05/12 08:45:39;;;;;;;3.75;2.90;;;;;;;27.21;38.44;95423.25;5052097;28;20170;-82
2022/05/12 08:48:12;;;;;;;3.70;2.85;;;;;;;27.41;35.36;95420.16;5035604;28;20179;-83
2022/05/12 08:50:40;;;;;;;4.95;2.90;;;;;;;26.98;36.21;95391.84;5052380;28;20246;-83
2022/05/12 08:53:13;;;;;;;8.98;2.88;;;;;;;27.04;36.47;95423.88;5033864;28;20171;-84
2022/05/12 08:55:47;;;;;;;5.30;3.03;;;;;;;27.22;35.59;95421.34;5051868;28;20173;-83
2022/05/12 08:58:22;;;;;;;3.72;3.00;;;;;;;27.04;35.64;95425.78;5031001;28;20178;-83
2022/05/12 09:01:09;;;;;;;4.18;2.60;;;;;;;27.00;34.70;95419.34;5030218;28;20667;-84
2022/05/12 09:03:46;;;;;;;12.98;3.13;;;;;;;27.32;38.90;95421.97;5029533;28;20187;-81
2022/05/12 09:06:27;;;;;;;3.03;2.60;;;;;;;27.22;36.91;95361.88;5047589;28;20186;-78
2022/05/12 09:09:00;;;;;;;5.03;2.78;;;;;;;27.55;33.87;95394.97;5050978;28;20233;-79
2022/05/12 09:11:55;;;;;;;4.60;2.47;;;;;;;27.38;34.52;95392.88;5050219;28;20197;-79
2022/05/12 09:14:33;;;;;;;3.17;2.72;;;;;;;26.98;34.01;95384.50;5050310;28;20211;-79
2022/05/12 09:17:00;;;;;;;5.70;2.63;;;;;;;27.21;39.04;95411.63;5050384;28;20185;-80
2022/05/12 09:19:27;;;;;;;5.25;2.72;;;;;;;27.33;38.64;95410.00;5050874;28;20174;-80
2022/05/12 09:21:54;;;;;;;3.05;2.70;;;;;;;27.53;39.31;95411.47;5033211;28;20187;-79
2022/05/12 09:24:20;;;;;;;5.68;2.55;;;;;;;27.31;37.46;95360.03;5050860;28;20227;-79
2022/05/12 09:26:51;;;;;;;2.88;2.58;;;;;;;27.73;35.76;95404.84;5050783;28;20315;-79
2022/05/12 09:29:24;;;;;;;5.40;2.85;;;;;;;27.62;37.14;95379.94;5040017;28;20648;-80
2022/05/12 09:31:55;;;;;;;3.28;2.97;;;;;;;27.83;35.07;95412.75;5048689;28;20163;-79
2022/05/12 09:34:40;;;;;;;5.90;2.90;;;;;;;27.77;35.42;95409.34;5048475;28;20171;-79
2022/05/12 09:37:25;;;;;;;5.07;2.92;;;;;;;27.77;35.55;95405.84;5039494;28;20225;-78
2022/05/12 09:39:56;;;;;;;6.78;2.67;;;;;;;27.74;35.19;95406.47;5041015;28;20557;-80
2022/05/12 09:42:28;;;;;;;7.57;3.10;;;;;;;27.15;36.56;95413.66;5040547;28;20279;-81
2022/05/12 09:45:06;;;;;;;3.83;2.65;;;;;;;26.89;34.95;95372.78;5043201;28;20640;-80
2022/05/12 09:47:33;;;;;;;3.78;3.13;;;;;;;26.85;37.17;95400.69;5033360;28;20606;-83
2022/05/12 09:50:16;;;;;;;4.50;2.83;;;;;;;26.37;34.75;95338.94;5051130;28;20171;-85
2022/05/12 09:52:59;;;;;;;7.53;3.13;;;;;;;26.28;36.29;95346.94;5048368;28;20167;-84
2022/05/12 09:55:27;;;;;;;3.92;3.05;;;;;;;26.57;40.16;95395.28;5028787;28;20170;-84
2022/05/12 09:57:59;;;;;;;5.07;2.65;;;;;;;26.66;37.05;95398.88;5030937;28;20201;-84
2022/05/12 10:00:53;;;;;;;6.03;3.25;;;;;;;26.79;37.41;95400.00;5049100;28;20645;-84
2022/05/12 10:09:09;;;;;;;5.32;2.92;;;;;;;26.90;36.09;95389.78;5046337;28;20264;-84
2022/05/12 10:11:43;;;;;;;4.55;2.85;;;;;;;26.86;38.48;95381.50;5027752;28;20179;-83
2022/05/12 10:14:30;;;;;;;4.80;2.70;;;;;;;26.69;35.09;95346.16;5023577;28;20219;-84
2022/05/12 10:17:00;;;;;;;3.55;2.63;;;;;;;26.77;35.76;95369.78;5024758;28;20278;-87
2022/05/12 10:19:27;;;;;;;4.55;2.50;;;;;;;26.73;33.97;95376.06;5025200;28;20202;-86
2022/05/12 10:22:12;;;;;;;4.78;2.72;;;;;;;26.76;36.85;95370.06;5008468;28;20180;-86
2022/05/12 10:24:52;;;;;;;4.32;2.40;;;;;;;26.56;37.00;95341.53;5026720;28;20662;-86
2022/05/12 10:27:39;;;;;;;6.43;2.35;;;;;;;26.59;35.04;95357.16;5024369;28;20258;-86
2022/05/12 10:30:38;;;;;;;4.50;2.40;;;;;;;26.68;36.94;95353.47;5026897;28;20633;-86
2022/05/12 10:33:18;;;;;;;9.13;3.35;;;;;;;26.51;36.02;95328.13;5022901;28;20562;-86
2022/05/12 10:35:52;;;;;;;4.68;2.55;;;;;;;26.66;37.08;95355.66;5028512;28;20183;-86
2022/05/12 10:38:27;;;;;;;3.03;2.70;;;;;;;26.64;34.21;95352.44;5024930;28;20179;-86
2022/05/12 10:41:21;;;;;;;5.78;2.55;;;;;;;26.57;34.00;95335.84;5030783;28;20191;-86
2022/05/12 10:43:59;;;;;;;3.47;2.28;;;;;;;26.63;33.36;95341.97;5031415;28;20192;-84
2022/05/12 10:46:54;;;;;;;2.58;2.30;;;;;;;26.34;33.68;95301.72;5026279;28;20250;-87
2022/05/12 10:49:29;;;;;;;4.93;2.78;;;;;;;26.62;33.63;95340.34;5032142;28;20168;-80
2022/05/12 10:52:31;;;;;;;3.65;2.72;;;;;;;26.28;33.79;95286.72;5032862;28;20313;-82
2022/05/12 10:55:05;;;;;;;4.18;2.17;;;;;;;26.26;34.56;95292.44;4984165;28;20250;-81
2022/05/12 10:57:38;;;;;;;2.97;2.40;;;;;;;26.58;33.68;95328.53;5016308;28;20192;-81
2022/05/12 11:00:25;;;;;;;2.78;2.58;;;;;;;26.65;34.36;95324.34;5033457;28;20168;-86
2022/05/12 11:02:57;;;;;;;3.45;1.98;;;;;;;26.55;33.48;95300.22;5030239;28;20218;-83
2022/05/12 11:05:37;;;;;;;3.78;2.63;;;;;;;26.71;35.23;95319.66;5025612;28;20210;-87
2022/05/12 11:08:09;;;;;;;6.28;2.45;;;;;;;26.70;35.17;95325.34;5032895;28;20225;-86
2022/05/12 11:10:44;;;;;;;3.00;2.28;;;;;;;26.63;33.93;95315.75;5032705;28;20561;-87
2022/05/12 11:13:34;;;;;;;14.15;3.17;;;;;;;26.59;36.06;95298.53;5035008;28;20293;-83
2022/05/12 11:16:15;;;;;;;6.05;2.85;;;;;;;26.52;34.74;95281.13;5052939;28;20169;-81
2022/05/12 11:18:51;;;;;;;4.75;2.17;;;;;;;26.74;33.97;95305.53;5035631;28;20564;-83
2022/05/12 11:21:25;;;;;;;2.72;2.17;;;;;;;26.46;33.68;95303.94;5035689;28;20167;-81
2022/05/12 11:23:58;;;;;;;7.32;2.95;;;;;;;26.40;36.75;95292.41;5027132;28;20195;-82
2022/05/12 11:26:39;;;;;;;3.00;2.72;;;;;;;26.43;36.39;95291.03;5042956;28;20176;-83
2022/05/12 11:29:44;;;;;;;4.40;2.63;;;;;;;26.27;34.67;95258.94;5025370;28;20167;-82
2022/05/12 11:32:19;;;;;;;5.28;3.45;;;;;;;26.17;35.05;95231.28;5025040;28;20160;-82
2022/05/12 11:34:50;;;;;;;6.68;3.10;;;;;;;26.37;34.42;95255.22;5051723;28;20556;-85
2022/05/12 11:37:28;;;;;;;3.35;3.05;;;;;;;26.66;35.40;95285.41;5047499;28;20167;-81
2022/05/12 11:39:57;;;;;;;4.65;2.85;;;;;;;26.47;35.48;95249.59;5051897;28;20252;-82
2022/05/12 11:44:23;;;;;;;5.28;2.72;;;;;;;26.64;36.70;95271.41;5053005;28;20226;-84
2022/05/12 11:45:38;;;;;;;2.85;2.40;;;;;;;26.55;34.60;95256.22;5051961;28;20229;-83
2022/05/12 11:48:11;;;;;;;3.05;2.65;;;;;;;26.54;33.60;95265.44;5051969;28;20163;-84
2022/05/12 11:50:46;;;;;;;2.85;2.38;;;;;;;26.54;34.26;95268.94;5048667;28;20648;-84
2022/05/12 11:53:22;;;;;;;4.85;2.95;;;;;;;26.52;36.09;95254.13;5053797;28;20170;-86
2022/05/12 11:56:11;;;;;;;4.28;2.90;;;;;;;26.28;35.62;95219.22;5038733;28;20167;-83
2022/05/12 11:58:47;;;;;;;3.58;2.50;;;;;;;26.45;34.81;95251.84;5051037;28;20570;-84